EDT,Max TemperatureF,Mean TemperatureF,Min TemperatureF,Max Dew PointF,MeanDew PointF,Min DewpointF,Max Humidity, Mean Humidity, Min Humidity, Max Sea Level PressureIn, Mean Sea Level PressureIn, Min Sea Level PressureIn, Max VisibilityMiles, Mean VisibilityMiles, Min VisibilityMiles, Max Wind SpeedMPH, Mean Wind SpeedMPH, Max Gust SpeedMPH,PrecipitationIn, CloudCover, Events, WindDirDegrees
2011-3-1,34,28,22,22,12,4,69,49,28,30.25,30.10,29.82,10,10,3,26,12,32,T,1,Snow,295
2011-3-2,41,28,15,25,15,-2,75,57,39,30.30,30.05,29.86,10,10,7,31,19,44,T,2,Snow,253
2011-3-3,26,16,5,-2,-8,-12,55,38,21,30.69,30.56,30.34,10,10,10,21,10,30,0.00,0,,327
2011-3-4,33,23,13,25,9,-9,84,57,29,30.76,30.66,30.54,10,10,10,17,8,23,0.00,2,,170
2011-3-5,50,39,27,45,36,25,100,81,61,30.57,30.39,30.20,10,7,0,24,14,32,0.02,8,Fog-Rain-Snow,196
2011-3-6,51,48,44,50,47,41,100,91,82,30.17,29.96,29.71,10,5,0,22,13,29,0.74,8,Fog-Rain,183
2011-3-7,53,38,23,52,37,16,100,82,63,30.27,29.68,29.46,10,5,0,37,20,47,1.09,6,Fog-Rain-Snow,247
2011-3-8,42,31,20,18,11,7,77,51,25,30.63,30.50,30.28,10,10,10,18,6,24,0.00,0,,359
2011-3-9,32,28,24,26,22,17,85,72,58,30.71,30.64,30.58,10,10,10,17,10,24,0.00,6,,70
2011-3-10,38,34,29,37,34,26,100,93,85,30.55,30.31,30.11,10,5,0,15,10,21,0.12,8,Fog-Rain,76
2011-3-11,48,42,36,48,43,32,100,93,86,30.06,29.81,29.72,10,5,0,17,8,23,0.94,7,Fog-Rain,180
2011-3-12,46,39,31,31,29,27,85,71,57,29.83,29.76,29.72,10,10,6,23,11,33,T,4,Rain-Snow,244
2011-3-13,43,39,34,32,29,27,82,68,53,30.14,29.94,29.79,10,10,10,23,12,31,T,7,Rain,281
2011-3-14,35,31,27,29,27,24,92,81,69,30.43,30.28,30.13,10,9,2,10,4,14,T,7,Snow,349
2011-3-15,41,34,26,29,27,25,100,77,54,30.53,30.46,30.37,10,6,0,14,7,17,0.00,4,Fog,205
2011-3-16,42,36,30,39,33,26,100,93,85,30.40,30.10,29.94,10,6,0,22,8,31,0.52,7,Fog-Rain,350
2011-3-17,58,47,36,38,32,25,100,66,32,30.15,30.07,29.97,10,10,10,23,13,30,0.00,0,,264
2011-3-18,64,56,47,43,31,19,71,46,20,29.94,29.81,29.70,10,10,10,35,19,49,T,0,,258
2011-3-19,47,39,30,31,22,11,65,47,29,30.47,30.17,29.88,10,10,10,20,10,26,T,4,Rain,324
2011-3-20,44,35,26,25,10,2,72,46,19,30.64,30.56,30.47,10,10,10,12,6,17,0.00,0,,325
2011-3-21,33,32,30,32,29,22,100,83,66,30.49,30.07,29.80,10,3,0,22,8,28,0.31,8,Fog-Rain-Snow,159
2011-3-22,39,34,29,34,29,24,100,77,54,29.97,29.86,29.76,10,8,1,8,11,10,T,7,,317
2011-3-23,33,30,26,24,17,13,78,62,45,29.95,29.83,29.67,10,10,10,12,6,16,0.00,3,,337
2011-3-24,38,32,26,25,20,10,85,62,39,29.84,29.68,29.60,10,10,6,16,9,22,T,6,Snow,24
2011-3-25,37,30,23,18,12,4,81,55,29,29.90,29.85,29.77,10,10,10,23,12,31,0.00,1,,294
2011-3-26,35,27,18,7,6,4,61,45,28,29.93,29.89,29.84,10,10,10,26,14,33,0.00,0,,293
2011-3-27,38,29,20,10,4,-1,67,44,20,29.91,29.83,29.76,10,10,10,24,16,33,0.00,0,,286
2011-3-28,42,32,22,12,6,1,50,38,25,29.91,29.83,29.77,10,10,10,26,17,36,0.00,2,,292
2011-3-29,42,33,24,18,14,11,60,47,33,30.07,29.97,29.89,10,10,10,23,12,30,0.00,1,,299
2011-3-30,52,40,27,24,19,12,75,49,23,30.15,30.05,29.96,10,10,10,18,7,25,0.00,0,,301
2011-3-31,43,37,30,32,28,22,100,72,43,29.96,29.85,29.71,10,6,0,16,7,24,0.25,7,Fog-Snow,79